Prior Lake, MN

10:05 AM CST on December 07, 2016 (GMT -0600)
The Farm II | | Change Station

Elev 1145 ft 44.57 °N, 93.35 °W | Updated 56 days ago

Cloudy
Cloudy
18 °F
Feels Like 2 °F
N
18
Wind Variable Wind from West
Gusts 24 mph

Today
High -- | Low -- °F
--% Chance of Precip.
Yesterday
High -- | Low -- °F
Precip. -- in
Pressure 30.09 in
Visibility 5.0 miles
Clouds Mostly Cloudy 2200 ft
Overcast 3600 ft
Windchill 2 °F
Dew Point 8 °F
Humidity 66%
Rainfall in
Snow Depth Not available.
7:37 AM 4:33 PM
First Quarter, 53% visible
METAR KFCM 071553Z 25018G25KT 5SM -SN BKN022 OVC036 M08/M13 A3004 RMK AO2 SLP188 P0000 T10781133
Pressure 30.09 in
Visibility 5.0 miles
Clouds Mostly Cloudy 2200 ft
Overcast 3600 ft
Windchill 2 °F
Dew Point 8 °F
Humidity 66%
Rainfall in
Snow Depth Not available.
7:37 AM 4:33 PM
First Quarter, 53% visible
METAR KFCM 071553Z 25018G25KT 5SM -SN BKN022 OVC036 M08/M13 A3004 RMK AO2 SLP188 P0000 T10781133

10-Day Weather Forecast

Almanac

Astronomy

Dec. 07, 2016 Rise Set
Actual Time
Civil Twilight
Nautical Twilight
Astronomical Twilight
Moon
Length of Visible Light
Length of Day
Tomorrow will be .
, % of the Moon is Illuminated

Today's Extremes

State Highs State Lows

Community

WunderPhotos

Upload Photos

1,956,129 photos uploaded!

WunderBlog® & News

Nearby

Air Quality

  Air Quality AQ Index Pollutant
Not available.

Snow Depth

Station Depth Elevation

Earthquake Activity

City Distance Mag. Time & Date
Minimum magnitude displayed is 2.5.

Coastal Water Temperatures

Place Temperature

Stations

Nearby Weather Stations

Station Location Temp. Windchill Dew Point Humidity Wind Precip. Elev Updated Type
                   

Watches & Warnings

There are currently no watches in effect.